Airfield :
LOGIN :

Register | Disclaimer

   EN    FR    IT 

 










Legend :    VFR   Marginal VFR   IFR   Intensive IFR   Very Intensive IFR
Visi :
Ceiling :
>= 8 km
>= 3000ft
5 to 8 km
1000 to 3000 ft
1500m to 5 km
500 to 1000 ft
800 to 1500m
200 to 500 ft
< 800m
< 200 ft
Symbols :   Thunderstorms  Fog  Heavy snow  Heavy precipitations  Wind > 20 kt
SIGMETs :     Misc.  Thunderstorms  Icing  Turbulence  Mountain Waves  Volcanic Ashes







- Airport Elevation : 55 ft
- IATA code : DSA
- Download approach charts


EGCN - Robin Hood Doncaster Sheffield

CURRENT METAR :
  • 150950Z 32015KT 9999 FEW014 04/02 Q0999

EXPIRED METARs :
  • 150920Z 33017KT 9999 FEW011 04/02 Q0998
  • 150850Z 33017KT 9999 FEW014 04/02 Q0997
  • 150820Z 33018KT 9999 FEW023 03/02 Q0997
  • 150750Z 33017KT 9999 FEW026 03/02 Q0996
  • 150720Z 33016KT 9999 SCT026 SCT039 04/02 Q0995

TAF TAF EGCN
Valid from the 15 at 06:00 until the 16 at 06:00 UTC


150457Z 1506/1606 34012KT 9999 SCT025
TEMPO 1506/1515 35015G25KT 7000 SHRA BKN012
BECMG 1522/1601 28007KT
No reported NOTAMs for that airfield.



MET'MAP, your aeronautical weather chart ! - Copyright ORBIFLY December 2007 - Disclaimer

ORBIFLY MET'MAP TEAM :

Programming & Development : Alexandra Zaïnal
Concept & Development : Baudouin d'Aumeries
Co-Development & Prog : Marc-Olivier Méhu
Technical & hardware support : Manuel Goepfert

Contact : metmap@orbifly.com




SOURCES & CREDITS :

   NOAA